Time;durP1;ratioP1;P1;durP2;ratioP2;P2;SDS_P1;SDS_P2;PMS_P1;PMS_P2;Temp;Humidity;BMP_temperature;BMP_pressure;BME280_temperature;BME280_humidity;BME280_pressure;Samples;Min_cycle;Max_cycle;Signal;HPM_P1;HPM_P2
2022/10/29 04:01:20;;;;;;;1999.90;999.90;;;10.20;99.90;;;;;;5597485;23;20248;-77
2022/10/29 04:03:46;;;;;;;1999.90;999.90;;;10.20;99.90;;;;;;4996538;28;20043;-77
2022/10/29 04:06:14;;;;;;;1999.90;999.90;;;10.20;99.90;;;;;;4998101;28;20031;-77
2022/10/29 04:08:40;;;;;;;1999.90;999.90;;;10.20;99.90;;;;;;4997808;28;20042;-77
2022/10/29 04:11:07;;;;;;;1999.90;999.90;;;10.20;99.90;;;;;;4996099;28;20500;-78
2022/10/29 04:13:33;;;;;;;1999.90;999.90;;;10.20;99.90;;;;;;4997625;28;20094;-77
2022/10/29 04:15:59;;;;;;;1999.90;999.90;;;10.20;99.90;;;;;;5020036;23;20117;-73
2022/10/29 04:18:25;;;;;;;1999.90;999.90;;;10.20;99.90;;;;;;4997787;28;20042;-73
2022/10/29 04:20:50;;;;;;;1999.90;999.90;;;10.10;99.90;;;;;;4998051;28;20071;-73
2022/10/29 04:23:16;;;;;;;1999.90;999.90;;;10.00;99.90;;;;;;4996287;28;20046;-73
2022/10/29 04:25:41;;;;;;;1999.90;999.90;;;10.00;99.90;;;;;;4997168;28;20031;-73
2022/10/29 04:28:07;;;;;;;1999.90;999.90;;;10.00;99.90;;;;;;4997749;28;20034;-73
2022/10/29 04:30:32;;;;;;;1999.90;999.90;;;9.90;99.90;;;;;;4997809;28;20037;-73
2022/10/29 04:32:59;;;;;;;1999.90;999.90;;;9.80;99.90;;;;;;4997419;28;20074;-73
2022/10/29 04:35:26;;;;;;;1999.90;999.90;;;9.80;99.90;;;;;;4997373;28;20396;-73
2022/10/29 04:37:54;;;;;;;1999.90;999.90;;;9.70;99.90;;;;;;4997485;28;20046;-73
2022/10/29 04:40:26;;;;;;;1999.90;999.90;;;9.70;99.90;;;;;;4997684;28;20396;-73
2022/10/29 04:42:51;;;;;;;1999.90;999.90;;;9.70;99.90;;;;;;4997651;28;20038;-73
2022/10/29 04:45:17;;;;;;;1999.90;999.90;;;9.70;99.90;;;;;;4997065;28;20477;-73
2022/10/29 04:47:43;;;;;;;1999.90;999.90;;;9.80;99.90;;;;;;4997806;28;20039;-73
2022/10/29 04:50:08;;;;;;;1999.90;999.90;;;9.80;99.90;;;;;;4997628;28;20026;-73
2022/10/29 04:52:34;;;;;;;1999.90;999.90;;;9.80;99.90;;;;;;4998575;28;20050;-74
2022/10/29 04:54:59;;;;;;;1999.90;999.90;;;9.80;99.90;;;;;;4998017;28;20041;-73
2022/10/29 04:57:25;;;;;;;1999.90;999.90;;;9.80;99.90;;;;;;4997290;28;20118;-73
2022/10/29 04:59:50;;;;;;;1999.90;999.90;;;9.80;99.90;;;;;;4997173;28;20083;-73
2022/10/29 05:02:16;;;;;;;1999.90;999.90;;;9.80;99.90;;;;;;4997212;28;20080;-73
2022/10/29 05:04:41;;;;;;;1999.90;999.90;;;9.70;99.90;;;;;;4997082;28;20029;-73
2022/10/29 05:07:07;;;;;;;1999.90;999.90;;;9.70;99.90;;;;;;4996633;28;20374;-73
2022/10/29 05:09:33;;;;;;;1999.90;999.90;;;9.60;99.90;;;;;;4997052;28;20516;-74
2022/10/29 05:11:58;;;;;;;1999.90;999.90;;;9.70;99.90;;;;;;4997046;28;20045;-74
2022/10/29 05:14:24;;;;;;;1999.90;999.90;;;9.60;99.90;;;;;;4997174;28;20488;-75
2022/10/29 05:16:49;;;;;;;1999.90;999.90;;;9.60;99.90;;;;;;4994703;28;20035;-74
2022/10/29 05:19:15;;;;;;;1999.90;999.90;;;9.70;99.90;;;;;;4996834;28;20484;-74
2022/10/29 05:21:40;;;;;;;1999.90;999.90;;;9.70;99.90;;;;;;4996833;28;20081;-74
2022/10/29 05:24:06;;;;;;;1999.90;999.90;;;9.70;99.90;;;;;;4996734;28;20026;-75
2022/10/29 05:26:32;;;;;;;1999.90;999.90;;;9.60;99.90;;;;;;4996555;28;20043;-75
2022/10/29 05:28:57;;;;;;;1999.90;999.90;;;9.60;99.90;;;;;;4997051;28;20477;-74
2022/10/29 05:31:23;;;;;;;1999.90;999.90;;;9.50;99.90;;;;;;4996480;28;20043;-74
2022/10/29 05:33:49;;;;;;;1999.90;999.90;;;9.50;99.90;;;;;;4996896;28;20035;-74
2022/10/29 05:36:14;;;;;;;1999.90;999.90;;;9.50;99.90;;;;;;4996586;28;20031;-74
2022/10/29 05:38:40;;;;;;;1999.90;999.90;;;9.40;99.90;;;;;;4996906;28;20378;-74
2022/10/29 05:41:05;;;;;;;1999.90;999.90;;;9.40;99.90;;;;;;4996778;28;20497;-74
2022/10/29 05:43:31;;;;;;;1999.90;999.90;;;9.30;99.90;;;;;;4996638;28;20069;-74
2022/10/29 05:45:56;;;;;;;1999.90;999.90;;;9.30;99.90;;;;;;4996259;28;20473;-75
2022/10/29 05:48:22;;;;;;;1999.90;999.90;;;9.30;99.90;;;;;;4997008;28;20448;-74
2022/10/29 05:50:47;;;;;;;1999.90;999.90;;;9.40;99.90;;;;;;4995568;28;20505;-74
2022/10/29 05:53:13;;;;;;;1999.90;999.90;;;9.50;99.90;;;;;;4996859;28;20345;-74
2022/10/29 05:55:40;;;;;;;1999.90;999.90;;;9.60;99.90;;;;;;4996706;28;20038;-74
2022/10/29 05:58:10;;;;;;;1999.90;999.90;;;9.60;99.90;;;;;;4996936;28;20034;-74
2022/10/29 06:00:38;;;;;;;1999.90;999.90;;;9.70;99.90;;;;;;4996981;28;20038;-74
2022/10/29 06:03:13;;;;;;;1999.90;999.90;;;9.60;99.90;;;;;;4995006;28;20066;-74
2022/10/29 06:05:38;;;;;;;1999.90;999.90;;;9.60;99.90;;;;;;4995928;28;20031;-74
2022/10/29 06:08:04;;;;;;;1999.90;999.90;;;9.60;99.90;;;;;;4996341;28;20113;-74
2022/10/29 06:10:29;;;;;;;1999.90;999.90;;;9.50;99.90;;;;;;4996140;28;20476;-74
2022/10/29 06:12:55;;;;;;;1999.90;999.90;;;9.50;99.90;;;;;;4995850;28;20050;-74
2022/10/29 06:15:21;;;;;;;1999.90;999.90;;;9.50;99.90;;;;;;4994982;28;20030;-74
2022/10/29 06:17:47;;;;;;;1999.90;999.90;;;9.40;99.90;;;;;;4996802;28;20039;-74
2022/10/29 06:20:15;;;;;;;1999.90;999.90;;;9.40;99.90;;;;;;4995311;28;20034;-74
2022/10/29 06:22:41;;;;;;;1999.90;999.90;;;9.40;99.90;;;;;;4995938;28;20042;-74
2022/10/29 06:25:07;;;;;;;1999.90;999.90;;;9.40;99.90;;;;;;4995413;28;20406;-74
2022/10/29 06:27:32;;;;;;;1999.90;999.90;;;9.40;99.90;;;;;;4996312;28;20506;-74
2022/10/29 06:29:58;;;;;;;1999.90;999.90;;;9.40;99.90;;;;;;4996169;28;20041;-74
2022/10/29 06:32:23;;;;;;;1999.90;999.90;;;9.50;99.90;;;;;;4995603;28;20074;-74
2022/10/29 06:34:49;;;;;;;1999.90;999.90;;;9.60;99.90;;;;;;4995113;28;20027;-74
2022/10/29 06:37:14;;;;;;;1999.90;999.90;;;9.60;99.90;;;;;;4995781;28;20034;-74
2022/10/29 06:39:40;;;;;;;1999.90;999.90;;;9.70;99.90;;;;;;4995899;28;20397;-74
2022/10/29 06:42:05;;;;;;;1999.90;999.90;;;9.70;99.90;;;;;;4995958;28;20046;-74
2022/10/29 06:44:31;;;;;;;1999.90;999.90;;;9.70;99.90;;;;;;4995709;28;20038;-74
2022/10/29 06:46:57;;;;;;;1999.90;999.90;;;9.80;99.90;;;;;;4995292;28;20057;-74
2022/10/29 06:49:22;;;;;;;1999.90;999.90;;;9.70;99.90;;;;;;4995202;28;20110;-74
2022/10/29 06:51:48;;;;;;;1999.90;999.90;;;9.90;99.90;;;;;;4995538;28;20322;-74
2022/10/29 06:54:14;;;;;;;1999.90;999.90;;;9.90;99.90;;;;;;4995616;28;20038;-74
2022/10/29 06:56:39;;;;;;;1999.90;999.90;;;10.00;99.90;;;;;;4995149;28;20039;-74
2022/10/29 06:59:05;;;;;;;1999.90;999.90;;;10.10;99.90;;;;;;4995546;28;20034;-74
2022/10/29 07:01:32;;;;;;;1999.90;999.90;;;10.30;99.90;;;;;;4994053;28;20035;-75
2022/10/29 07:04:01;;;;;;;1999.90;999.90;;;10.30;99.90;;;;;;4995204;28;20034;-75
2022/10/29 07:06:30;;;;;;;1999.90;999.90;;;10.50;99.90;;;;;;4993682;28;20062;-79
2022/10/29 07:08:55;;;;;;;1999.90;999.90;;;10.60;99.90;;;;;;4995320;28;20453;-76
2022/10/29 07:11:21;;;;;;;1999.90;999.90;;;10.60;99.90;;;;;;4994939;28;20089;-76
2022/10/29 07:13:46;;;;;;;1999.90;999.90;;;10.60;99.90;;;;;;4995118;28;20038;-76
2022/10/29 07:16:12;;;;;;;1999.90;999.90;;;10.70;99.90;;;;;;4993072;28;20042;-75
2022/10/29 07:18:37;;;;;;;1999.90;999.90;;;10.60;99.90;;;;;;4993972;28;20035;-76
2022/10/29 07:21:03;;;;;;;1999.90;999.90;;;10.60;99.90;;;;;;4993681;28;20039;-75
2022/10/29 07:23:29;;;;;;;1999.90;999.90;;;10.60;99.90;;;;;;4995139;28;20035;-75
2022/10/29 07:25:54;;;;;;;1999.90;999.90;;;10.60;99.90;;;;;;4994659;28;20185;-75
2022/10/29 07:28:21;;;;;;;1999.90;999.90;;;10.70;99.90;;;;;;4995126;28;20031;-75
2022/10/29 07:30:51;;;;;;;1999.90;999.90;;;10.70;99.90;;;;;;4994461;28;20034;-76
2022/10/29 07:33:17;;;;;;;1999.90;999.90;;;10.80;99.90;;;;;;4994424;28;20409;-76
2022/10/29 07:35:44;;;;;;;1999.90;999.90;;;10.90;99.90;;;;;;4995665;28;20030;-75
2022/10/29 07:38:11;;;;;;;1999.90;999.90;;;11.00;99.90;;;;;;4997358;28;20033;-75
2022/10/29 07:40:46;;;;;;;1999.90;999.90;;;11.00;99.90;;;;;;4995287;28;20517;-75
2022/10/29 07:43:11;;;;;;;1999.90;999.90;;;11.10;99.90;;;;;;4995159;28;20035;-75
2022/10/29 07:45:37;;;;;;;1999.90;999.90;;;11.10;99.90;;;;;;4994389;28;20039;-75
2022/10/29 07:48:06;;;;;;;1999.90;999.90;;;11.20;99.90;;;;;;4995035;28;20117;-76
2022/10/29 07:50:32;;;;;;;1999.90;999.90;;;11.20;99.90;;;;;;4994591;28;20507;-75
2022/10/29 07:53:01;;;;;;;1999.90;999.90;;;11.30;99.90;;;;;;4994912;28;20089;-75
2022/10/29 07:55:27;;;;;;;1999.90;999.90;;;11.30;99.90;;;;;;4994610;28;20090;-75
2022/10/29 07:57:57;;;;;;;1999.90;999.90;;;11.40;99.90;;;;;;4994974;28;20058;-76
2022/10/29 08:00:27;;;;;;;1999.90;999.90;;;11.40;99.90;;;;;;4994628;28;20113;-76
2022/10/29 08:02:54;;;;;;;1999.90;999.90;;;11.50;99.90;;;;;;4994590;28;20118;-76
2022/10/29 08:05:20;;;;;;;1999.90;999.90;;;11.60;99.90;;;;;;4994461;28;20062;-76
2022/10/29 08:07:45;;;;;;;1999.90;999.90;;;11.80;99.90;;;;;;4993262;28;20065;-76
2022/10/29 08:10:11;;;;;;;1999.90;999.90;;;12.00;99.90;;;;;;4994533;28;20045;-76
2022/10/29 08:12:36;;;;;;;1999.90;999.90;;;12.10;99.90;;;;;;4994184;28;20511;-76
2022/10/29 08:15:04;;;;;;;1999.90;999.90;;;12.40;99.90;;;;;;4994060;28;20090;-76
2022/10/29 08:17:33;;;;;;;1999.90;999.90;;;12.60;99.90;;;;;;4994745;28;20070;-76
2022/10/29 08:19:58;;;;;;;1999.90;999.90;;;12.90;99.90;;;;;;4994254;28;20035;-76
2022/10/29 08:22:24;;;;;;;1999.90;999.90;;;13.20;99.90;;;;;;4994649;28;20065;-76
2022/10/29 08:24:49;;;;;;;1999.90;999.90;;;13.40;99.90;;;;;;4993958;28;20396;-76
2022/10/29 08:27:15;;;;;;;1999.90;999.90;;;13.80;99.90;;;;;;4994207;28;20047;-76
2022/10/29 08:29:40;;;;;;;1999.90;999.90;;;13.90;99.90;;;;;;4994256;28;20074;-76
2022/10/29 08:32:06;;;;;;;1999.90;999.90;;;14.00;99.90;;;;;;4993706;28;20039;-76
2022/10/29 08:34:31;;;;;;;1999.90;999.90;;;14.20;99.90;;;;;;4994405;28;20038;-76
2022/10/29 08:36:57;;;;;;;1999.90;999.90;;;14.40;99.90;;;;;;4993784;28;20093;-76
2022/10/29 08:39:23;;;;;;;1999.90;999.90;;;14.30;99.90;;;;;;4994077;28;20063;-76
2022/10/29 08:42:07;;;;;;;1999.90;999.90;;;14.40;99.90;;;;;;4993965;28;20049;-76
2022/10/29 08:44:54;;;;;;;1999.90;999.90;;;14.50;99.90;;;;;;4996934;28;20027;-76
2022/10/29 08:47:22;;;;;;;1999.90;999.90;;;14.80;99.90;;;;;;4995708;28;20039;-76
2022/10/29 08:50:20;;;;;;;1999.90;999.90;;;15.00;99.90;;;;;;4997320;28;20031;-76
2022/10/29 08:52:47;;;;;;;1999.90;999.90;;;15.10;99.90;;;;;;4997291;28;20146;-77
2022/10/29 08:55:21;;;;;;;1999.90;999.90;;;15.20;99.90;;;;;;4996949;28;20556;-75
2022/10/29 08:57:55;;;;;;;1999.90;999.90;;;15.20;99.90;;;;;;4997328;28;20039;-75
2022/10/29 09:00:25;;;;;;;1999.90;999.90;;;15.20;99.90;;;;;;4997289;28;20102;-75
2022/10/29 09:02:57;;;;;;;1999.90;999.90;;;15.20;99.90;;;;;;4997116;28;20121;-75
2022/10/29 09:05:31;;;;;;;1999.90;999.90;;;15.30;99.90;;;;;;4996516;28;20031;-76
2022/10/29 09:08:33;;;;;;;1999.90;999.90;;;15.40;99.90;;;;;;4997334;28;20090;-75
2022/10/29 09:11:22;;;;;;;1999.90;999.90;;;15.40;99.90;;;;;;4995500;28;20059;-76
2022/10/29 09:13:57;;;;;;;1999.90;999.90;;;15.50;99.90;;;;;;4997245;28;20034;-75
2022/10/29 09:16:36;;;;;;;1999.90;999.90;;;15.60;99.90;;;;;;4996577;28;20038;-75
2022/10/29 09:19:43;;;;;;;1999.90;999.90;;;15.70;99.90;;;;;;4997142;28;20171;-76
2022/10/29 09:22:41;;;;;;;1999.90;999.90;;;15.80;99.90;;;;;;4997092;28;20031;-77
2022/10/29 09:25:28;;;;;;;1999.90;999.90;;;16.10;99.90;;;;;;4996641;28;20035;-76
2022/10/29 09:28:06;;;;;;;1999.90;999.90;;;16.40;99.90;;;;;;4996837;28;20504;-75
2022/10/29 09:30:41;;;;;;;1999.90;999.90;;;16.70;99.90;;;;;;4996786;28;20175;-76
2022/10/29 09:33:18;;;;;;;1999.90;999.90;;;17.10;99.90;;;;;;4996791;28;20035;-75
2022/10/29 09:35:52;;;;;;;1999.90;999.90;;;17.50;99.90;;;;;;4996203;28;20516;-76
2022/10/29 09:38:31;;;;;;;1999.90;999.90;;;17.60;99.90;;;;;;4996780;28;20382;-75
2022/10/29 09:41:00;;;;;;;1999.90;999.90;;;17.70;99.90;;;;;;4996737;28;20031;-76
2022/10/29 09:43:38;;;;;;;1999.90;999.90;;;17.80;99.90;;;;;;4996596;28;20054;-76
2022/10/29 09:46:16;;;;;;;1999.90;999.90;;;17.80;99.90;;;;;;4996077;28;20102;-76
2022/10/29 09:48:47;;;;;;;1999.90;999.90;;;17.70;99.90;;;;;;4996591;28;20114;-76
2022/10/29 09:51:47;;;;;;;1999.90;999.90;;;17.60;99.90;;;;;;4994988;28;20050;-76
2022/10/29 09:54:12;;;;;;;1999.90;999.90;;;17.50;99.90;;;;;;4964376;28;20046;-76
2022/10/29 09:56:43;;;;;;;1999.90;999.90;;;17.20;99.90;;;;;;4994236;28;20038;-76
2022/10/29 09:59:25;;;;;;;1999.90;999.90;;;17.30;99.90;;;;;;4996190;28;20037;-76
2022/10/29 10:01:51;;;;;;;1999.90;999.90;;;17.20;99.90;;;;;;4996271;28;20031;-76
2022/10/29 10:04:25;;;;;;;1999.90;999.90;;;17.20;99.90;;;;;;4994520;28;20481;-76
2022/10/29 10:07:14;;;;;;;1999.90;999.90;;;17.00;99.90;;;;;;4995636;28;20121;-76
2022/10/29 10:09:51;;;;;;;1999.90;999.90;;;17.00;99.90;;;;;;4995602;28;20103;-76
2022/10/29 10:12:18;;;;;;;1999.90;999.90;;;17.10;99.90;;;;;;4996048;28;20038;-76
2022/10/29 10:14:46;;;;;;;1999.90;999.90;;;17.10;99.90;;;;;;4995778;28;20035;-76
2022/10/29 10:17:12;;;;;;;1999.90;999.90;;;17.10;99.90;;;;;;5019156;23;20134;-77
2022/10/29 10:19:44;;;;;;;1999.90;999.90;;;17.20;99.90;;;;;;4996257;28;20174;-78
2022/10/29 10:22:23;;;;;;;1999.90;999.90;;;17.30;99.90;;;;;;4995925;28;20031;-77
2022/10/29 10:24:49;;;;;;;1999.90;999.90;;;17.50;99.90;;;;;;4994414;28;20158;-77
2022/10/29 10:27:17;;;;;;;1999.90;999.90;;;17.70;99.90;;;;;;4995513;28;20492;-77
2022/10/29 10:30:02;;;;;;;1999.90;999.90;;;17.80;99.90;;;;;;4996304;28;20105;-77
2022/10/29 10:32:27;;;;;;;1999.90;999.90;;;18.00;99.90;;;;;;4995909;28;20496;-77
2022/10/29 10:34:53;;;;;;;1999.90;999.90;;;18.10;99.90;;;;;;4995727;28;20089;-77
2022/10/29 10:37:20;;;;;;;1999.90;999.90;;;18.40;99.90;;;;;;4995796;28;20042;-77
2022/10/29 10:40:03;;;;;;;1999.90;999.90;;;18.50;99.90;;;;;;4994630;28;20030;-77
2022/10/29 10:42:36;;;;;;;1999.90;999.90;;;18.50;99.90;;;;;;4995864;28;20564;-78
2022/10/29 10:45:16;;;;;;;1999.90;999.90;;;18.50;99.90;;;;;;4994356;28;20035;-76
2022/10/29 10:47:49;;;;;;;1999.90;999.90;;;18.50;99.90;;;;;;4996049;28;20041;-76
2022/10/29 10:50:23;;;;;;;1999.90;999.90;;;18.50;99.90;;;;;;4994058;28;20475;-78
2022/10/29 10:52:53;;;;;;;1999.90;999.90;;;18.60;99.90;;;;;;4995504;28;20098;-77
2022/10/29 10:55:32;;;;;;;1999.90;999.90;;;18.70;99.90;;;;;;4994909;28;20054;-77
2022/10/29 10:58:01;;;;;;;1999.90;999.90;;;18.90;99.90;;;;;;4994002;28;20039;-77
2022/10/29 11:00:31;;;;;;;1999.90;999.90;;;19.10;99.90;;;;;;4995264;28;20038;-76
2022/10/29 11:03:23;;;;;;;1999.90;999.90;;;19.10;99.90;;;;;;4995482;28;20109;-78
2022/10/29 11:06:13;;;;;;;1999.90;999.90;;;19.30;99.90;;;;;;4983605;28;20039;-77
2022/10/29 11:08:45;;;;;;;1999.90;999.90;;;19.30;99.90;;;;;;4995582;28;20035;-77
2022/10/29 11:11:39;;;;;;;1999.90;999.90;;;19.50;99.90;;;;;;4995146;28;20459;-77
2022/10/29 11:14:25;;;;;;;1999.90;999.90;;;19.60;99.90;;;;;;4964108;28;20055;-77
2022/10/29 11:16:55;;;;;;;1999.90;999.90;;;19.80;99.90;;;;;;4993032;28;20037;-76
2022/10/29 11:19:32;;;;;;;1999.90;999.90;;;20.00;99.90;;;;;;4994931;28;20442;-76
2022/10/29 11:22:19;;;;;;;1999.90;999.90;;;20.10;99.90;;;;;;4994714;28;20050;-76
2022/10/29 11:25:23;;;;;;;1999.90;999.90;;;20.20;99.90;;;;;;4994826;28;20034;-76
2022/10/29 11:28:18;;;;;;;1999.90;999.90;;;20.40;99.90;;;;;;4995259;28;20456;-76
2022/10/29 11:30:50;;;;;;;1999.90;999.90;;;20.60;99.90;;;;;;4984201;28;20134;-76
2022/10/29 11:33:34;;;;;;;1999.90;999.90;;;20.80;99.90;;;;;;4994925;28;20046;-77
2022/10/29 11:36:21;;;;;;;1999.90;999.90;;;20.90;99.90;;;;;;4993754;28;20042;-77
2022/10/29 11:39:08;;;;;;;1999.90;999.90;;;21.00;99.90;;;;;;4994418;28;20450;-77
2022/10/29 11:41:47;;;;;;;1999.90;999.90;;;21.20;99.90;;;;;;4994715;28;20079;-77
2022/10/29 11:44:16;;;;;;;1999.90;999.90;;;21.20;99.90;;;;;;4994292;28;20160;-77
2022/10/29 11:47:19;;;;;;;1999.90;999.90;;;21.40;99.90;;;;;;4992501;28;20031;-77
2022/10/29 11:50:03;;;;;;;1999.90;999.90;;;21.60;99.90;;;;;;4994549;28;20106;-77
2022/10/29 11:52:34;;;;;;;1999.90;999.90;;;21.80;99.90;;;;;;4994301;28;20039;-77
2022/10/29 11:55:27;;;;;;;1999.90;999.90;;;22.00;99.90;;;;;;4994351;28;20063;-77
2022/10/29 11:58:30;;;;;;;1999.90;999.90;;;22.20;99.90;;;;;;4994768;28;20039;-77
2022/10/29 12:01:19;;;;;;;1999.90;999.90;;;22.50;99.90;;;;;;4994866;28;20038;-77
2022/10/29 12:03:44;;;;;;;1999.90;999.90;;;22.70;99.90;;;;;;4994210;28;20472;-77
2022/10/29 12:06:38;;;;;;;1999.90;999.90;;;22.90;99.90;;;;;;4994305;28;20031;-77
2022/10/29 12:09:18;;;;;;;1999.90;999.90;;;23.10;99.90;;;;;;4993453;28;20046;-77
2022/10/29 12:11:48;;;;;;;1999.90;999.90;;;23.20;99.90;;;;;;4994614;28;20038;-77
2022/10/29 12:14:28;;;;;;;1999.90;999.90;;;23.40;99.90;;;;;;4994455;28;20034;-77
2022/10/29 12:17:03;;;;;;;1999.90;999.90;;;23.50;99.90;;;;;;4992229;28;20039;-77
2022/10/29 12:19:52;;;;;;;1999.90;999.90;;;23.60;99.90;;;;;;4997545;28;20122;-77
2022/10/29 12:22:37;;;;;;;1999.90;999.90;;;23.70;99.90;;;;;;4998120;28;20098;-78
2022/10/29 12:25:44;;;;;;;1999.90;999.90;;;23.70;99.90;;;;;;4998051;28;20110;-77
2022/10/29 12:28:19;;;;;;;1999.90;999.90;;;23.90;99.90;;;;;;4918318;29;20044;-77
2022/10/29 12:30:48;;;;;;;1999.90;999.90;;;24.10;99.90;;;;;;4982431;28;20548;-78
2022/10/29 12:33:33;;;;;;;1999.90;999.90;;;24.50;99.90;;;;;;4996488;28;20058;-78
2022/10/29 12:36:21;;;;;;;1999.90;999.90;;;24.90;99.90;;;;;;4997915;28;20476;-77
2022/10/29 12:38:52;;;;;;;1999.90;999.90;;;25.10;99.90;;;;;;4998093;28;20039;-77
2022/10/29 12:41:24;;;;;;;1999.90;999.90;;;25.30;99.90;;;;;;4996114;28;20500;-77
2022/10/29 12:43:51;;;;;;;1999.90;999.90;;;25.50;99.90;;;;;;4996508;28;20855;-77
2022/10/29 12:46:38;;;;;;;1999.90;999.90;;;25.60;99.90;;;;;;4996096;28;20400;-77
2022/10/29 12:49:12;;;;;;;1999.90;999.90;;;25.70;99.90;;;;;;4998025;28;20035;-77
2022/10/29 12:52:22;;;;;;;1999.90;999.90;;;25.70;99.90;;;;;;4996308;28;20047;-77
2022/10/29 12:54:50;;;;;;;1999.90;999.90;;;25.40;99.90;;;;;;4986420;28;20074;-77
2022/10/29 12:57:15;;;;;;;1999.90;999.90;;;25.20;99.90;;;;;;4997548;28;20035;-77
2022/10/29 12:59:43;;;;;;;1999.90;999.90;;;25.20;99.90;;;;;;4997168;28;20583;-78
2022/10/29 13:02:17;;;;;;;1999.90;999.90;;;25.20;99.90;;;;;;4997447;28;20476;-78
2022/10/29 13:05:04;;;;;;;1999.90;999.90;;;25.10;99.90;;;;;;4997179;28;20082;-78
2022/10/29 13:07:31;;;;;;;1999.90;999.90;;;25.10;99.90;;;;;;4997350;28;20493;-77
2022/10/29 13:10:22;;;;;;;1999.90;999.90;;;25.00;99.90;;;;;;4997286;28;20559;-77
2022/10/29 13:12:54;;;;;;;1999.90;999.90;;;25.10;99.90;;;;;;4995742;28;20053;-78
2022/10/29 13:15:36;;;;;;;1999.90;999.90;;;25.10;99.90;;;;;;4996046;28;20027;-77
2022/10/29 13:18:17;;;;;;;1999.90;999.90;;;25.20;99.90;;;;;;4997259;28;20042;-77
2022/10/29 13:20:51;;;;;;;1999.90;999.90;;;25.20;99.90;;;;;;4997777;28;20109;-77
2022/10/29 13:23:22;;;;;;;1999.90;999.90;;;25.20;99.90;;;;;;4997003;28;20043;-78
2022/10/29 13:25:52;;;;;;;1999.90;999.90;;;25.10;99.90;;;;;;4996566;28;20638;-77
2022/10/29 13:28:17;;;;;;;1999.90;999.90;;;25.20;99.90;;;;;;5011125;28;20463;-77
2022/10/29 13:30:45;;;;;;;1999.90;999.90;;;25.20;99.90;;;;;;5020384;28;20057;-81
2022/10/29 13:33:26;;;;;;;1999.90;999.90;;;25.00;99.90;;;;;;5018854;28;20042;-77
2022/10/29 13:36:20;;;;;;;1999.90;999.90;;;24.90;99.90;;;;;;5016512;28;20443;-76
2022/10/29 13:38:48;;;;;;;1999.90;999.90;;;24.80;99.90;;;;;;5016150;28;20102;-81
2022/10/29 13:41:22;;;;;;;1999.90;999.90;;;24.60;99.90;;;;;;5016863;28;20030;-80
2022/10/29 13:44:04;;;;;;;1999.90;999.90;;;24.40;99.90;;;;;;5015787;28;20038;-77
2022/10/29 13:47:01;;;;;;;1999.90;999.90;;;24.30;99.90;;;;;;5015536;28;20557;-79
2022/10/29 13:49:36;;;;;;;1999.90;999.90;;;24.00;99.90;;;;;;5016801;28;20057;-76
2022/10/29 13:52:07;;;;;;;1999.90;999.90;;;24.00;99.90;;;;;;5016352;28;20042;-76
2022/10/29 13:54:53;;;;;;;1999.90;999.90;;;23.80;99.90;;;;;;5015055;28;20069;-76
2022/10/29 13:57:42;;;;;;;1999.90;999.90;;;23.70;99.90;;;;;;5016438;28;20034;-77
2022/10/29 14:00:11;;;;;;;1999.90;999.90;;;23.60;99.90;;;;;;5002873;28;20535;-78
2022/10/29 14:02:43;;;;;;;1999.90;999.90;;;23.60;99.90;;;;;;4995750;28;20043;-77
2022/10/29 14:05:18;;;;;;;1999.90;999.90;;;23.50;99.90;;;;;;5007485;28;20126;-82
2022/10/29 14:08:11;;;;;;;1999.90;999.90;;;23.40;99.90;;;;;;4997196;28;20042;-78
2022/10/29 14:10:40;;;;;;;1999.90;999.90;;;23.20;99.90;;;;;;4994429;28;20554;-79
2022/10/29 14:13:45;;;;;;;1999.90;999.90;;;23.10;99.90;;;;;;5007545;28;20043;-79
2022/10/29 14:16:14;;;;;;;1999.90;999.90;;;23.00;99.90;;;;;;5013555;28;21113;-79
2022/10/29 14:18:47;;;;;;;1999.90;999.90;;;23.00;99.90;;;;;;4991940;28;20042;-77
2022/10/29 14:21:21;;;;;;;1999.90;999.90;;;23.00;99.90;;;;;;5008792;28;20030;-77
2022/10/29 14:24:03;;;;;;;1999.90;999.90;;;23.00;99.90;;;;;;5000276;28;20048;-77
2022/10/29 14:26:32;;;;;;;1999.90;999.90;;;22.90;99.90;;;;;;5007329;28;20126;-79
2022/10/29 14:29:18;;;;;;;1999.90;999.90;;;22.90;99.90;;;;;;4989765;28;20042;-79
2022/10/29 14:31:45;;;;;;;1999.90;999.90;;;22.90;99.90;;;;;;4987379;28;20058;-79
2022/10/29 14:34:24;;;;;;;1999.90;999.90;;;22.90;99.90;;;;;;4995319;28;20041;-79
2022/10/29 14:36:54;;;;;;;1999.90;999.90;;;22.80;99.90;;;;;;4988592;28;20030;-78
2022/10/29 14:39:33;;;;;;;1999.90;999.90;;;22.70;99.90;;;;;;4982380;28;20485;-78
2022/10/29 14:41:59;;;;;;;1999.90;999.90;;;22.40;99.90;;;;;;4993340;28;20042;-78
2022/10/29 14:44:32;;;;;;;1999.90;999.90;;;22.40;99.90;;;;;;5014263;28;20034;-78
2022/10/29 14:47:23;;;;;;;1999.90;999.90;;;22.30;99.90;;;;;;5004325;28;20039;-78
2022/10/29 14:49:50;;;;;;;1999.90;999.90;;;22.30;99.90;;;;;;5011130;28;20054;-78
2022/10/29 14:52:28;;;;;;;1999.90;999.90;;;22.10;99.90;;;;;;4991849;28;20061;-78
2022/10/29 14:54:54;;;;;;;1999.90;999.90;;;22.00;99.90;;;;;;4995246;28;20042;-78
2022/10/29 14:57:23;;;;;;;1999.90;999.90;;;21.90;99.90;;;;;;4989589;28;20409;-76
2022/10/29 14:59:54;;;;;;;1999.90;999.90;;;21.70;99.90;;;;;;4992073;28;20039;-77
2022/10/29 15:02:21;;;;;;;1999.90;999.90;;;21.60;99.90;;;;;;4992398;28;20043;-77
2022/10/29 15:04:49;;;;;;;1999.90;999.90;;;21.40;99.90;;;;;;4988975;28;20083;-78
2022/10/29 15:07:24;;;;;;;1999.90;999.90;;;21.20;99.90;;;;;;4995370;28;20090;-78
2022/10/29 15:10:18;;;;;;;1999.90;999.90;;;20.90;99.90;;;;;;5005618;28;20027;-80
2022/10/29 15:12:48;;;;;;;1999.90;999.90;;;20.70;99.90;;;;;;5010595;28;20038;-78
2022/10/29 15:15:17;;;;;;;1999.90;999.90;;;20.50;99.90;;;;;;5009517;28;20109;-76
2022/10/29 15:17:51;;;;;;;1999.90;999.90;;;20.40;99.90;;;;;;5001788;28;20440;-77
2022/10/29 15:20:23;;;;;;;1999.90;999.90;;;20.30;99.90;;;;;;4987325;28;20117;-82
2022/10/29 15:22:54;;;;;;;1999.90;999.90;;;20.10;99.90;;;;;;5008653;28;20031;-82
2022/10/29 15:25:31;;;;;;;1999.90;999.90;;;20.00;99.90;;;;;;4997235;28;20026;-77
2022/10/29 15:27:57;;;;;;;1999.90;999.90;;;19.80;99.90;;;;;;4995420;28;20043;-77
2022/10/29 15:30:34;;;;;;;1999.90;999.90;;;19.60;99.90;;;;;;4995260;28;20031;-77
2022/10/29 15:33:07;;;;;;;1999.90;999.90;;;19.40;99.90;;;;;;4994888;28;20039;-77
2022/10/29 15:35:43;;;;;;;1999.90;999.90;;;19.20;99.90;;;;;;4999552;28;20030;-82
2022/10/29 15:38:28;;;;;;;1999.90;999.90;;;19.20;99.90;;;;;;4999636;28;20070;-80
2022/10/29 15:41:28;;;;;;;1999.90;999.90;;;19.00;99.90;;;;;;4980799;28;20041;-78
2022/10/29 15:43:56;;;;;;;1999.90;999.90;;;18.80;99.90;;;;;;4994567;28;20031;-77
2022/10/29 15:46:43;;;;;;;1999.90;999.90;;;18.70;99.90;;;;;;4995648;28;20027;-77
2022/10/29 15:49:14;;;;;;;1999.90;999.90;;;18.50;99.90;;;;;;4994192;28;20058;-77
2022/10/29 15:51:40;;;;;;;1999.90;999.90;;;18.40;99.90;;;;;;4995924;28;20130;-78
2022/10/29 15:54:15;;;;;;;1999.90;999.90;;;18.10;99.90;;;;;;4997769;28;20110;-77
2022/10/29 15:56:40;;;;;;;1999.90;999.90;;;18.00;99.90;;;;;;4998201;28;20058;-77
2022/10/29 15:59:10;;;;;;;1999.90;999.90;;;17.80;99.90;;;;;;4998135;28;20086;-78
2022/10/29 16:01:36;;;;;;;1999.90;999.90;;;17.70;99.90;;;;;;4997194;28;20039;-78
2022/10/29 16:04:02;;;;;;;1999.90;999.90;;;17.50;99.90;;;;;;4996863;28;20042;-77
2022/10/29 16:06:27;;;;;;;1999.90;999.90;;;17.40;99.90;;;;;;4997863;28;20034;-77
2022/10/29 16:08:56;;;;;;;1999.90;999.90;;;17.40;99.90;;;;;;4998718;28;20408;-78
2022/10/29 16:11:22;;;;;;;1999.90;999.90;;;17.20;99.90;;;;;;4998511;28;20030;-78
2022/10/29 16:13:49;;;;;;;1999.90;999.90;;;17.00;99.90;;;;;;4996726;28;20145;-78
2022/10/29 16:16:21;;;;;;;1999.90;999.90;;;16.90;99.90;;;;;;5019029;23;20234;-76
2022/10/29 16:18:51;;;;;;;1999.90;999.90;;;16.70;99.90;;;;;;4997801;28;20487;-76
2022/10/29 16:21:20;;;;;;;1999.90;999.90;;;16.70;99.90;;;;;;4997951;28;20113;-76
2022/10/29 16:23:46;;;;;;;1999.90;999.90;;;16.60;99.90;;;;;;4996327;28;20031;-76
2022/10/29 16:26:16;;;;;;;1999.90;999.90;;;16.40;99.90;;;;;;4997071;28;20038;-76
2022/10/29 16:28:45;;;;;;;1999.90;999.90;;;16.30;99.90;;;;;;4997301;28;20043;-76